createdAt,value
2022-11-28T00:00:15.000Z,13.3
2022-11-28T00:03:48.000Z,13.4
2022-11-28T00:06:40.000Z,12.3
2022-11-28T00:10:12.000Z,13.8
2022-11-28T00:13:45.000Z,12.9
2022-11-28T00:17:17.000Z,13.3
2022-11-28T00:20:50.000Z,13.8
2022-11-28T00:24:23.000Z,13.8
2022-11-28T00:27:55.000Z,12.4
2022-11-28T00:31:28.000Z,14.4
2022-11-28T00:35:01.000Z,13.7
2022-11-28T00:38:33.000Z,13.4
2022-11-28T00:42:06.000Z,13
2022-11-28T00:44:57.000Z,14.8
2022-11-28T00:48:30.000Z,13.1
2022-11-28T00:52:02.000Z,12.9
2022-11-28T00:55:35.000Z,14.3
2022-11-28T00:59:08.000Z,12.7
2022-11-28T01:02:40.000Z,13.7
2022-11-28T01:06:13.000Z,13.6
2022-11-28T01:09:46.000Z,13.4
2022-11-28T01:13:18.000Z,13.6
2022-11-28T01:16:51.000Z,13.4
2022-11-28T01:20:24.000Z,13.3
2022-11-28T01:23:15.000Z,13.6
2022-11-28T01:26:48.000Z,14.3
2022-11-28T01:30:20.000Z,13.7
2022-11-28T01:33:53.000Z,13.1
2022-11-28T01:37:26.000Z,12.7
2022-11-28T01:40:59.000Z,13.8
2022-11-28T01:44:31.000Z,13.6
2022-11-28T01:48:04.000Z,13.7
2022-11-28T01:51:37.000Z,15.7
2022-11-28T01:55:10.000Z,13.2
2022-11-28T01:58:42.000Z,13.8
2022-11-28T02:01:34.000Z,14.4
2022-11-28T02:05:06.000Z,13.5
2022-11-28T02:08:39.000Z,13.5
2022-11-28T02:12:11.000Z,12.9
2022-11-28T02:15:44.000Z,13.2
2022-11-28T02:19:17.000Z,12.3
2022-11-28T02:22:49.000Z,12.1
2022-11-28T02:26:22.000Z,12.9
2022-11-28T02:29:54.000Z,13.4
2022-11-28T02:33:27.000Z,12.7
2022-11-28T02:37:00.000Z,13.4
2022-11-28T02:39:51.000Z,14
2022-11-28T02:43:24.000Z,13.7
2022-11-28T02:46:56.000Z,14
2022-11-28T02:50:29.000Z,15.2
2022-11-28T02:54:01.000Z,15.5
2022-11-28T02:57:34.000Z,14.1
2022-11-28T03:01:07.000Z,15.6
2022-11-28T03:04:40.000Z,15.6
2022-11-28T03:08:12.000Z,13.4
2022-11-28T03:11:45.000Z,12.9
2022-11-28T03:15:17.000Z,13.4
2022-11-28T03:18:08.000Z,14.2
2022-11-28T03:21:41.000Z,13.6
2022-11-28T03:25:14.000Z,14.8
2022-11-28T03:28:46.000Z,15.1
2022-11-28T03:32:19.000Z,14.9
2022-11-28T03:35:51.000Z,15
2022-11-28T03:39:24.000Z,15.7
2022-11-28T03:42:57.000Z,16.4
2022-11-28T03:46:29.000Z,15.7
2022-11-28T03:50:02.000Z,13.8
2022-11-28T03:53:35.000Z,14.8
2022-11-28T03:56:26.000Z,14.8
2022-11-28T03:59:59.000Z,14.7
2022-11-28T04:03:31.000Z,14.4
2022-11-28T04:07:04.000Z,13.7
2022-11-28T04:10:36.000Z,15.6
2022-11-28T04:14:09.000Z,14.7
2022-11-28T04:17:42.000Z,14.2
2022-11-28T04:21:14.000Z,14.2
2022-11-28T04:24:47.000Z,14.1
2022-11-28T04:28:19.000Z,15
2022-11-28T04:31:52.000Z,14.2
2022-11-28T04:34:43.000Z,14.6
2022-11-28T04:38:16.000Z,14.5
2022-11-28T04:41:48.000Z,15.7
2022-11-28T04:45:21.000Z,14.8
2022-11-28T04:48:54.000Z,14.4
2022-11-28T04:52:26.000Z,14.6
2022-11-28T04:55:59.000Z,15.1
2022-11-28T04:59:32.000Z,14.6
2022-11-28T05:03:04.000Z,14.3
2022-11-28T05:06:37.000Z,14.5
2022-11-28T05:10:10.000Z,13.7
2022-11-28T05:13:01.000Z,14.1
2022-11-28T05:16:33.000Z,14.8
2022-11-28T05:20:06.000Z,15
2022-11-28T05:23:39.000Z,14.1
2022-11-28T05:27:11.000Z,14
2022-11-28T05:30:44.000Z,14.3
2022-11-28T05:34:16.000Z,13.3
2022-11-28T05:37:49.000Z,14.8
2022-11-28T05:41:22.000Z,13.9
2022-11-28T05:44:54.000Z,13.9
2022-11-28T05:48:27.000Z,13.5
2022-11-28T05:51:18.000Z,16
2022-11-28T05:54:51.000Z,16.1
2022-11-28T05:58:23.000Z,13.8
2022-11-28T06:01:56.000Z,14.5
2022-11-28T06:05:29.000Z,13.7
2022-11-28T06:09:08.000Z,15.4
2022-11-28T06:12:41.000Z,15
2022-11-28T06:16:14.000Z,15.1
2022-11-28T06:19:46.000Z,15.9
2022-11-28T06:23:19.000Z,16.7
2022-11-28T06:26:52.000Z,16
2022-11-28T06:29:43.000Z,15.4
2022-11-28T06:33:16.000Z,13.6
2022-11-28T06:36:48.000Z,15.8
2022-11-28T06:40:21.000Z,14.1
2022-11-28T06:43:53.000Z,15.9
2022-11-28T06:47:26.000Z,15.4
2022-11-28T06:50:59.000Z,14.1
2022-11-28T06:54:31.000Z,14.1
2022-11-28T06:58:04.000Z,15.6
2022-11-28T07:01:37.000Z,16.4
2022-11-28T07:05:10.000Z,13.8
2022-11-28T07:08:01.000Z,14.3
2022-11-28T07:11:33.000Z,17.1
2022-11-28T07:15:06.000Z,16.9
2022-11-28T07:18:39.000Z,18
2022-11-28T07:22:11.000Z,15.7
2022-11-28T07:25:44.000Z,16
2022-11-28T07:29:16.000Z,16.2
2022-11-28T07:32:49.000Z,18.4
2022-11-28T07:36:22.000Z,19.6
2022-11-28T07:39:54.000Z,17.2
2022-11-28T07:43:27.000Z,17.5
2022-11-28T07:46:18.000Z,18.2
2022-11-28T07:49:51.000Z,16.6
2022-11-28T07:53:24.000Z,18
2022-11-28T07:56:56.000Z,16.3
2022-11-28T08:00:38.000Z,16
2022-11-28T08:04:10.000Z,17.8
2022-11-28T08:07:43.000Z,17
2022-11-28T08:11:16.000Z,18.1
2022-11-28T08:14:49.000Z,16.5
2022-11-28T08:18:21.000Z,16.3
2022-11-28T08:21:54.000Z,16.5
2022-11-28T08:24:45.000Z,15.4
2022-11-28T08:28:18.000Z,18.2
2022-11-28T08:31:52.000Z,18
2022-11-28T08:35:25.000Z,16.6
2022-11-28T08:38:58.000Z,17.8
2022-11-28T08:42:49.000Z,19.2
2022-11-28T08:46:21.000Z,19
2022-11-28T08:49:54.000Z,22.2
2022-11-28T08:53:27.000Z,19.2
2022-11-28T08:57:00.000Z,18.3
2022-11-28T09:00:32.000Z,17.8
2022-11-28T09:03:23.000Z,18.9
2022-11-28T09:06:56.000Z,18.7
2022-11-28T09:10:29.000Z,18.4
2022-11-28T09:14:01.000Z,18.8
2022-11-28T09:17:34.000Z,16.4
2022-11-28T09:21:06.000Z,17.7
2022-11-28T09:24:39.000Z,19.6
2022-11-28T09:28:12.000Z,18.9
2022-11-28T09:31:44.000Z,17.4
2022-11-28T09:35:17.000Z,17.3
2022-11-28T09:38:50.000Z,18.2
2022-11-28T09:41:41.000Z,18.2
2022-11-28T09:45:14.000Z,17.1
2022-11-28T09:48:47.000Z,18.3
2022-11-28T09:52:19.000Z,18.6
2022-11-28T09:55:52.000Z,17.9
2022-11-28T09:59:25.000Z,20.1
2022-11-28T10:02:58.000Z,19.2
2022-11-28T10:06:30.000Z,19.3
2022-11-28T10:10:03.000Z,18.9
2022-11-28T10:13:36.000Z,18.9
2022-11-28T10:17:32.000Z,20.4
2022-11-28T10:20:23.000Z,19.1
2022-11-28T10:23:58.000Z,18.7
2022-11-28T10:27:30.000Z,19.6
2022-11-28T10:31:03.000Z,18.4
2022-11-28T10:34:36.000Z,20.1
2022-11-28T10:38:08.000Z,17.5
2022-11-28T10:41:41.000Z,19.6
2022-11-28T10:45:14.000Z,19.7
2022-11-28T10:48:47.000Z,19.7
2022-11-28T10:52:19.000Z,18.6
2022-11-28T10:55:52.000Z,19.2
2022-11-28T10:58:43.000Z,17.8
2022-11-28T11:02:16.000Z,18.6
2022-11-28T11:05:48.000Z,18.5
2022-11-28T11:09:28.000Z,18.5
2022-11-28T11:13:00.000Z,18.6
2022-11-28T11:16:33.000Z,18.4
2022-11-28T11:20:06.000Z,18.5
2022-11-28T11:23:38.000Z,17.8
2022-11-28T11:27:11.000Z,17.1
2022-11-28T11:30:44.000Z,17.5
2022-11-28T11:34:17.000Z,18.4
2022-11-28T11:37:08.000Z,19.3
2022-11-28T11:40:40.000Z,19.5
2022-11-28T11:44:13.000Z,17.9
2022-11-28T11:47:51.000Z,18.2
2022-11-28T11:51:23.000Z,17.3
2022-11-28T11:55:04.000Z,18.7
2022-11-28T11:58:36.000Z,18
2022-11-28T12:02:09.000Z,19.1
2022-11-28T12:05:42.000Z,19.9
2022-11-28T12:09:38.000Z,18.6
2022-11-28T12:13:12.000Z,17.9
2022-11-28T12:16:03.000Z,19.4
2022-11-28T12:19:47.000Z,18.2
2022-11-28T12:23:20.000Z,18.6
2022-11-28T12:26:52.000Z,19.2
2022-11-28T12:30:25.000Z,18.9
2022-11-28T12:33:58.000Z,18.6
2022-11-28T12:37:30.000Z,17.8
2022-11-28T12:41:35.000Z,17.7
2022-11-28T12:45:07.000Z,19
2022-11-28T12:48:40.000Z,17.8
2022-11-28T12:52:18.000Z,17.8
2022-11-28T12:55:09.000Z,18
2022-11-28T12:58:42.000Z,17
2022-11-28T13:02:15.000Z,17.5
2022-11-28T13:05:47.000Z,17.2
2022-11-28T13:09:20.000Z,18.5
2022-11-28T13:12:53.000Z,19.4
2022-11-28T13:16:26.000Z,17.9
2022-11-28T13:19:58.000Z,18.9
2022-11-28T13:23:31.000Z,18.8
2022-11-28T13:27:04.000Z,20.7
2022-11-28T13:30:36.000Z,17.8
2022-11-28T13:33:27.000Z,18.6
2022-11-28T13:41:12.000Z,18.3
2022-11-28T13:45:31.000Z,18
2022-11-28T13:49:04.000Z,18.7
2022-11-28T13:52:40.000Z,18.7
2022-11-28T13:56:14.000Z,17.9
2022-11-28T13:59:46.000Z,18
2022-11-28T14:03:19.000Z,18.4
2022-11-28T14:06:52.000Z,18.2
2022-11-28T14:10:24.000Z,19
2022-11-28T14:13:16.000Z,18.8
2022-11-28T14:16:48.000Z,18.5
2022-11-28T14:20:54.000Z,17.5
2022-11-28T14:24:26.000Z,17.8
2022-11-28T14:27:59.000Z,19.2
2022-11-28T14:31:31.000Z,17.6
2022-11-28T14:35:04.000Z,18.8
2022-11-28T14:38:37.000Z,18.1
2022-11-28T14:42:10.000Z,18
2022-11-28T14:46:24.000Z,16.8
2022-11-28T14:49:57.000Z,17.7
2022-11-28T14:52:48.000Z,18.4
2022-11-28T14:56:20.000Z,17.7
2022-11-28T14:59:53.000Z,18.4
2022-11-28T15:03:26.000Z,17.7
2022-11-28T15:06:58.000Z,19.1
2022-11-28T15:10:31.000Z,18.1
2022-11-28T15:14:03.000Z,18.1
2022-11-28T15:17:36.000Z,19.1
2022-11-28T15:21:09.000Z,19.4
2022-11-28T15:24:41.000Z,19.5
2022-11-28T15:28:14.000Z,18.5
2022-11-28T15:31:05.000Z,18.6
2022-11-28T15:34:38.000Z,19.1
2022-11-28T15:38:11.000Z,19.5
2022-11-28T15:41:43.000Z,19.1
2022-11-28T15:45:16.000Z,18.2
2022-11-28T15:48:48.000Z,18.3
2022-11-28T15:52:21.000Z,19.1
2022-11-28T15:55:54.000Z,19.5
2022-11-28T15:59:26.000Z,19.3
2022-11-28T16:02:59.000Z,19.3
2022-11-28T16:06:32.000Z,20.1
2022-11-28T16:09:23.000Z,20.6
2022-11-28T16:12:55.000Z,20.4
2022-11-28T16:16:28.000Z,19.7
2022-11-28T16:20:01.000Z,20.1
2022-11-28T16:23:33.000Z,19.9
2022-11-28T16:27:06.000Z,19.5
2022-11-28T16:30:38.000Z,20
2022-11-28T16:34:11.000Z,18.6
2022-11-28T16:37:44.000Z,19.8
2022-11-28T16:41:16.000Z,21.2
2022-11-28T16:44:49.000Z,20.9
2022-11-28T16:47:40.000Z,19.8
2022-11-28T16:51:12.000Z,18.4
2022-11-28T16:54:45.000Z,20.6
2022-11-28T16:58:18.000Z,20.2
2022-11-28T17:01:50.000Z,19.6
2022-11-28T17:05:23.000Z,20.7
2022-11-28T17:08:56.000Z,20
2022-11-28T17:12:29.000Z,22
2022-11-28T17:16:03.000Z,20.9
2022-11-28T17:19:36.000Z,21.3
2022-11-28T17:23:09.000Z,23.6
2022-11-28T17:26:00.000Z,21.8
2022-11-28T17:29:33.000Z,21
2022-11-28T17:33:06.000Z,20.8
2022-11-28T17:36:39.000Z,21
2022-11-28T17:40:12.000Z,25.9
2022-11-28T17:43:44.000Z,23.1
2022-11-28T17:47:17.000Z,23.4
2022-11-28T17:50:50.000Z,22.8
2022-11-28T17:54:22.000Z,23.9
2022-11-28T17:57:55.000Z,23.7
2022-11-28T18:01:28.000Z,23.1
2022-11-28T18:04:19.000Z,24.6
2022-11-28T18:07:51.000Z,23.2
2022-11-28T18:11:24.000Z,24.5
2022-11-28T18:14:57.000Z,24.4
2022-11-28T18:18:29.000Z,24.9
2022-11-28T18:22:02.000Z,24.8
2022-11-28T18:25:34.000Z,23.9
2022-11-28T18:29:07.000Z,25.8
2022-11-28T18:32:40.000Z,26.3
2022-11-28T18:36:12.000Z,25.1
2022-11-28T18:39:45.000Z,24.7
2022-11-28T18:42:36.000Z,25
2022-11-28T18:46:09.000Z,23.7
2022-11-28T18:49:42.000Z,23.3
2022-11-28T18:53:14.000Z,24.3
2022-11-28T18:56:47.000Z,23.4
2022-11-28T19:00:20.000Z,24.5
2022-11-28T19:03:52.000Z,24.7
2022-11-28T19:07:25.000Z,23.9
2022-11-28T19:10:58.000Z,25.5
2022-11-28T19:14:30.000Z,24.1
2022-11-28T19:18:03.000Z,24
2022-11-28T19:20:54.000Z,24.2
2022-11-28T19:24:27.000Z,25.7
2022-11-28T19:27:59.000Z,23.5
2022-11-28T19:31:32.000Z,22.9
2022-11-28T19:35:05.000Z,23.2
2022-11-28T19:38:37.000Z,23.9
2022-11-28T19:42:10.000Z,25.1
2022-11-28T19:45:42.000Z,25
2022-11-28T19:49:15.000Z,25
2022-11-28T19:52:48.000Z,24.4
2022-11-28T19:56:21.000Z,24.1
2022-11-28T19:59:12.000Z,24.3
2022-11-28T20:02:44.000Z,23.3
2022-11-28T20:06:17.000Z,23.4
2022-11-28T20:09:57.000Z,24.7
2022-11-28T20:13:29.000Z,25
2022-11-28T20:17:02.000Z,25.2
2022-11-28T20:20:34.000Z,24.7
2022-11-28T20:24:07.000Z,25.4
2022-11-28T20:27:40.000Z,25
2022-11-28T20:31:12.000Z,23.6
2022-11-28T20:34:45.000Z,24.5
2022-11-28T20:37:37.000Z,24.3
2022-11-28T20:41:09.000Z,23.8
2022-11-28T20:44:42.000Z,24.3
2022-11-28T20:48:15.000Z,25.1
2022-11-28T20:51:47.000Z,23.9
2022-11-28T20:55:25.000Z,23.8
2022-11-28T20:59:19.000Z,24
2022-11-28T21:02:52.000Z,24.5
2022-11-28T21:06:25.000Z,25.6
2022-11-28T21:09:57.000Z,24.9
2022-11-28T21:13:55.000Z,25.3
2022-11-28T21:16:47.000Z,24.8
2022-11-28T21:20:19.000Z,25.9
2022-11-28T21:23:52.000Z,24.3
2022-11-28T21:27:24.000Z,25.5
2022-11-28T21:30:57.000Z,24.4
2022-11-28T21:34:30.000Z,24.4
2022-11-28T21:38:02.000Z,24.2
2022-11-28T21:41:35.000Z,24.6
2022-11-28T21:45:07.000Z,25.6
2022-11-28T21:48:40.000Z,24
2022-11-28T21:52:13.000Z,24.6
2022-11-28T21:55:04.000Z,23.5
2022-11-28T21:58:36.000Z,24.7
2022-11-28T22:02:30.000Z,25.8
2022-11-28T22:06:02.000Z,23.7
2022-11-28T22:09:35.000Z,23
2022-11-28T22:13:08.000Z,22.9
2022-11-28T22:16:40.000Z,24.3
2022-11-28T22:20:13.000Z,22.1
2022-11-28T22:23:55.000Z,22.5
2022-11-28T22:27:28.000Z,23.6
2022-11-28T22:31:00.000Z,23.3
2022-11-28T22:33:52.000Z,22.2
2022-11-28T22:37:24.000Z,23.2
2022-11-28T22:40:57.000Z,22.3
2022-11-28T22:44:30.000Z,21.5
2022-11-28T22:48:02.000Z,24.8
2022-11-28T22:51:35.000Z,21.9
2022-11-28T22:55:08.000Z,23.2
2022-11-28T22:58:40.000Z,22
2022-11-28T23:02:13.000Z,22.3
2022-11-28T23:05:46.000Z,23.2
2022-11-28T23:09:18.000Z,23.8
2022-11-28T23:12:09.000Z,23.2
2022-11-28T23:15:42.000Z,24.7
2022-11-28T23:19:18.000Z,27.1
2022-11-28T23:22:50.000Z,26.3
2022-11-28T23:26:23.000Z,23.1
2022-11-28T23:29:56.000Z,24.4
2022-11-28T23:33:28.000Z,24.6
2022-11-28T23:37:01.000Z,22.6
2022-11-28T23:40:34.000Z,24.7
2022-11-28T23:44:06.000Z,24.5
2022-11-28T23:47:39.000Z,23.4
2022-11-28T23:50:30.000Z,22.1
2022-11-28T23:54:03.000Z,22.2
2022-11-28T23:57:35.000Z,22.9
